This is the latest recevied weather packets stored in our database for station/object DM8MH-13. If no packets are shown the sender has not sent any weather packets the latest 10 day(s).
| Time | Temp. | Humidity | Pressure | Rain* | Wind** | Luminosity | Snow |
|---|---|---|---|---|---|---|---|
| 1788257471 | 20.56° C | 70% | 1018.8 hPa | 0 mm | - | 279 W/m² | - |
| 1788256871 | 21.11° C | 68% | 1018.9 hPa | 0 mm | - | 775 W/m² | - |
| 1788256271 | 20.56° C | 69% | 1018.9 hPa | 0 mm | - | 337 W/m² | - |
| 1788255671 | 20.56° C | 70% | 1018.8 hPa | 0 mm | - | 681 W/m² | - |
| 1788255070 | 20.56° C | 70% | 1018.7 hPa | 0 mm | - | 655 W/m² | - |
| 1788252070 | 18.89° C | 76% | 1018.6 hPa | 0 mm | - | 435 W/m² | - |
| 1788251470 | 18.89° C | 76% | 1018.6 hPa | 0 mm | - | 252 W/m² | - |
| 1788250870 | 18.89° C | 77% | 1018.5 hPa | 0 mm | - | 421 W/m² | - |
| 1788250270 | 18.33° C | 78% | 1018.5 hPa | 0 mm | - | 361 W/m² | - |
| 1788249671 | 18.33° C | 80% | 1018.4 hPa | 0 mm | - | 360 W/m² | - |
| 1788249073 | 17.78° C | 80% | 1018.4 hPa | 0 mm | - | 281 W/m² | - |
| 1788248472 | 17.78° C | 82% | 1018.3 hPa | 0 mm | - | 242 W/m² | - |
| 1788247872 | 17.22° C | 83% | 1018.2 hPa | 0 mm | - | 348 W/m² | - |
| 1788247272 | 17.22° C | 83% | 1018 hPa | 0 mm | - | 279 W/m² | - |
| 1788246672 | 16.67° C | 84% | 1018 hPa | 0 mm | - | 198 W/m² | - |
| 1788246073 | 16.67° C | 84% | 1018 hPa | 0 mm | - | 270 W/m² | - |
| 1788245472 | 16.67° C | 85% | 1018 hPa | 0 mm | - | 307 W/m² | - |
| 1788244872 | 16.11° C | 86% | 1018.1 hPa | 0 mm | - | 297 W/m² | - |
| 1788244272 | 15.56° C | 86% | 1017.9 hPa | 0 mm | - | 250 W/m² | - |
| 1788243672 | 15.56° C | 86% | 1017.8 hPa | 0 mm | - | 146 W/m² | - |
| 1788243072 | 15.56° C | 87% | 1017.8 hPa | 0 mm | - | 180 W/m² | - |
| 1788242472 | 15° C | 87% | 1017.6 hPa | 0 mm | - | 150 W/m² | - |
| 1788241272 | 14.44° C | 88% | 1017.6 hPa | 0 mm | - | 77 W/m² | - |
| 1788240671 | 14.44° C | 88% | 1017.6 hPa | 0 mm | - | 66 W/m² | - |
| 1788240071 | 14.44° C | 88% | 1017.6 hPa | 0 mm | - | 62 W/m² | - |
* Rain latest hour (hover to see other rain measurements)
** Current wind speed in m/s (hover to see current wind gust speed)